Time;durP1;ratioP1;P1;durP2;ratioP2;P2;SDS_P1;SDS_P2;PMS_P1;PMS_P2;Temp;Humidity;BMP_temperature;BMP_pressure;BME280_temperature;BME280_humidity;BME280_pressure;Samples;Min_cycle;Max_cycle;Signal;HPM_P1;HPM_P2
2022/06/15 00:02:48;;;;;;;5.50;2.73;;;12.20;99.90;;;;;;5113204;28;20125;-83
2022/06/15 00:05:34;;;;;;;7.50;2.92;;;12.10;99.90;;;;;;5111256;28;20293;-80
2022/06/15 00:08:23;;;;;;;9.35;3.08;;;12.10;99.90;;;;;;5113653;28;20051;-81
2022/06/15 00:11:16;;;;;;;8.70;3.47;;;12.00;99.90;;;;;;5095024;28;20055;-80
2022/06/15 00:14:06;;;;;;;9.77;4.03;;;12.00;99.90;;;;;;5094882;28;20078;-80
2022/06/15 00:16:53;;;;;;;9.68;4.15;;;12.00;99.90;;;;;;5104383;27;20058;-81
2022/06/15 00:19:39;;;;;;;9.65;5.05;;;12.00;99.90;;;;;;5101118;27;20104;-81
2022/06/15 00:22:25;;;;;;;10.60;5.07;;;11.90;99.90;;;;;;5132202;27;20054;-84
2022/06/15 00:25:13;;;;;;;13.18;5.55;;;11.90;99.90;;;;;;5115433;27;20446;-82
2022/06/15 00:27:59;;;;;;;13.60;6.03;;;11.90;99.90;;;;;;5118637;27;20051;-84
2022/06/15 00:30:49;;;;;;;9.07;4.85;;;11.90;99.90;;;;;;5133576;27;20069;-84
2022/06/15 00:33:35;;;;;;;8.82;4.13;;;11.80;99.90;;;;;;5114351;27;20501;-80
2022/06/15 00:36:22;;;;;;;11.68;5.03;;;11.80;99.90;;;;;;5101003;27;20058;-81
2022/06/15 00:39:09;;;;;;;17.30;4.90;;;11.80;99.90;;;;;;5132265;27;20108;-82
2022/06/15 00:41:55;;;;;;;11.63;4.82;;;11.80;99.90;;;;;;5132625;27;20043;-81
2022/06/15 00:44:44;;;;;;;12.85;4.57;;;11.80;99.90;;;;;;5119677;27;20047;-80
2022/06/15 00:47:37;;;;;;;14.00;5.15;;;11.70;99.90;;;;;;5124481;27;20679;-84
2022/06/15 00:50:25;;;;;;;8.05;4.47;;;11.70;99.90;;;;;;5132720;27;20050;-84
2022/06/15 00:53:11;;;;;;;12.38;5.28;;;11.70;99.90;;;;;;5117480;27;20039;-85
2022/06/15 00:55:58;;;;;;;12.43;6.03;;;11.60;99.90;;;;;;5099290;27;20048;-81
2022/06/15 00:58:48;;;;;;;8.20;4.82;;;11.60;99.90;;;;;;5131447;27;20082;-81
2022/06/15 01:01:34;;;;;;;11.60;4.63;;;11.60;99.90;;;;;;5125261;27;20050;-84
2022/06/15 01:04:21;;;;;;;12.82;5.82;;;11.50;99.90;;;;;;5131853;27;20063;-81
2022/06/15 01:07:26;;;;;;;12.25;4.93;;;11.50;99.90;;;;;;5112892;27;20091;-82
2022/06/15 01:10:26;;;;;;;11.45;4.60;;;11.50;99.90;;;;;;5113781;27;20047;-83
2022/06/15 01:13:15;;;;;;;13.07;4.78;;;11.50;99.90;;;;;;5133244;27;20089;-82
2022/06/15 01:16:25;;;;;;;9.88;5.00;;;11.50;99.90;;;;;;5112810;28;20061;-83
2022/06/15 01:19:36;;;;;;;8.95;4.80;;;11.50;99.90;;;;;;5130948;27;20096;-85
2022/06/15 01:22:47;;;;;;;8.90;4.75;;;11.40;99.90;;;;;;5112740;27;20065;-84
2022/06/15 01:26:10;;;;;;;12.57;5.47;;;11.40;99.90;;;;;;5114034;27;20047;-84
2022/06/15 01:29:25;;;;;;;11.07;4.80;;;11.40;99.90;;;;;;5111352;27;20047;-84
2022/06/15 01:32:45;;;;;;;8.73;3.83;;;11.40;99.90;;;;;;5113354;27;20047;-83
2022/06/15 01:35:50;;;;;;;9.32;4.75;;;11.40;99.90;;;;;;5114419;28;20318;-82
2022/06/15 01:38:45;;;;;;;7.55;3.90;;;11.30;99.90;;;;;;5113253;28;20039;-84
2022/06/15 01:41:57;;;;;;;8.00;3.95;;;11.30;99.90;;;;;;5112140;28;20047;-83
2022/06/15 01:44:50;;;;;;;9.43;4.40;;;11.30;99.90;;;;;;5102702;28;20051;-84
2022/06/15 01:47:39;;;;;;;8.38;4.32;;;11.30;99.90;;;;;;5114101;28;20047;-83
2022/06/15 01:50:32;;;;;;;8.98;4.18;;;11.30;99.90;;;;;;5115807;28;20078;-84
2022/06/15 01:53:34;;;;;;;7.25;4.28;;;11.20;99.90;;;;;;5130935;28;20047;-83
2022/06/15 01:56:23;;;;;;;16.40;5.20;;;11.20;99.90;;;;;;5110993;28;20047;-81
2022/06/15 01:59:15;;;;;;;8.52;4.60;;;11.20;99.90;;;;;;5115327;27;20533;-81
2022/06/15 02:02:04;;;;;;;11.18;4.75;;;11.20;99.90;;;;;;5133478;27;20055;-82
2022/06/15 02:04:53;;;;;;;9.82;4.60;;;11.10;99.90;;;;;;5116388;27;20055;-84
2022/06/15 02:07:57;;;;;;;9.65;5.18;;;11.10;99.90;;;;;;5101546;27;20142;-80
2022/06/15 02:11:07;;;;;;;7.80;4.20;;;11.10;99.90;;;;;;5103371;27;20087;-82
2022/06/15 02:13:59;;;;;;;7.63;3.92;;;11.10;99.90;;;;;;5115552;27;20051;-82
2022/06/15 02:16:52;;;;;;;7.63;3.78;;;11.10;99.90;;;;;;5102909;27;20051;-84
2022/06/15 02:19:43;;;;;;;9.82;4.00;;;11.10;99.90;;;;;;5117569;27;20104;-82
2022/06/15 02:22:32;;;;;;;8.25;4.38;;;11.10;99.90;;;;;;5116896;27;20047;-83
2022/06/15 02:25:22;;;;;;;8.90;4.15;;;11.00;99.90;;;;;;5116665;27;20055;-83
2022/06/15 02:28:09;;;;;;;7.22;4.65;;;11.00;99.90;;;;;;5116521;27;20128;-85
2022/06/15 02:30:55;;;;;;;9.15;4.50;;;11.00;99.90;;;;;;5132638;27;20494;-82
2022/06/15 02:33:54;;;;;;;9.98;4.07;;;11.00;99.90;;;;;;5133620;27;20514;-85
2022/06/15 02:36:40;;;;;;;11.75;5.00;;;11.00;99.90;;;;;;5136018;27;20050;-85
2022/06/15 02:39:26;;;;;;;9.98;4.68;;;11.00;99.90;;;;;;5115150;27;20132;-85
2022/06/15 02:42:31;;;;;;;12.52;5.03;;;11.00;99.90;;;;;;5116185;27;20047;-85
2022/06/15 02:45:23;;;;;;;10.35;4.97;;;11.10;99.90;;;;;;5133369;27;20051;-84
2022/06/15 02:48:10;;;;;;;10.90;4.55;;;11.10;99.90;;;;;;5116103;27;20589;-83
2022/06/15 02:51:14;;;;;;;8.55;4.70;;;11.20;99.90;;;;;;5101254;27;20134;-83
2022/06/15 02:54:09;;;;;;;9.77;4.75;;;11.30;99.90;;;;;;5133392;27;20449;-85
2022/06/15 02:56:56;;;;;;;17.48;5.32;;;11.30;99.90;;;;;;5115018;27;20051;-84
2022/06/15 02:59:44;;;;;;;11.43;5.97;;;11.40;99.90;;;;;;5133279;27;20533;-85
2022/06/15 03:02:31;;;;;;;11.50;5.90;;;11.40;99.90;;;;;;5133005;27;20051;-85
2022/06/15 03:05:18;;;;;;;15.65;5.93;;;11.50;99.90;;;;;;5132980;27;20046;-84
2022/06/15 03:08:04;;;;;;;9.38;6.03;;;11.70;99.90;;;;;;5133198;27;20055;-83
2022/06/15 03:10:52;;;;;;;11.73;5.05;;;11.80;99.90;;;;;;5099288;27;20062;-83
2022/06/15 03:13:38;;;;;;;9.75;6.03;;;11.90;99.90;;;;;;5132698;27;20092;-81
2022/06/15 03:16:25;;;;;;;13.05;4.47;;;12.00;99.90;;;;;;5118143;27;20054;-84
2022/06/15 03:19:11;;;;;;;12.13;4.68;;;12.10;99.90;;;;;;5132096;27;20069;-82
2022/06/15 03:21:57;;;;;;;9.77;4.82;;;12.10;99.90;;;;;;5115965;27;20051;-82
2022/06/15 03:24:43;;;;;;;9.70;4.47;;;12.20;99.90;;;;;;5132373;27;20050;-83
2022/06/15 03:27:29;;;;;;;9.35;3.63;;;12.20;99.90;;;;;;5132096;27;20059;-83
2022/06/15 03:30:16;;;;;;;10.02;3.92;;;12.20;99.90;;;;;;5116837;27;20051;-84
2022/06/15 03:33:02;;;;;;;6.55;3.25;;;12.20;99.90;;;;;;5132110;27;20081;-84
2022/06/15 03:35:49;;;;;;;9.55;3.97;;;12.20;99.90;;;;;;5114238;27;20051;-84
2022/06/15 03:38:35;;;;;;;10.20;3.83;;;12.30;99.90;;;;;;5099073;27;20047;-82
2022/06/15 03:41:21;;;;;;;9.85;3.53;;;12.30;99.90;;;;;;5132966;27;20047;-83
2022/06/15 03:44:09;;;;;;;9.98;4.28;;;12.20;99.90;;;;;;5113363;27;20051;-82
2022/06/15 03:46:59;;;;;;;6.07;3.50;;;12.20;99.90;;;;;;5114933;27;20058;-85
2022/06/15 03:49:54;;;;;;;7.45;3.15;;;12.20;99.90;;;;;;5133174;27;20081;-85
2022/06/15 03:52:40;;;;;;;6.43;3.53;;;12.20;99.90;;;;;;5100177;27;20074;-83
2022/06/15 03:55:28;;;;;;;7.30;4.03;;;12.20;99.90;;;;;;5116868;27;20047;-82
2022/06/15 03:58:18;;;;;;;6.38;3.30;;;12.20;99.90;;;;;;5131696;27;20051;-83
2022/06/15 04:01:04;;;;;;;8.65;3.20;;;12.10;99.90;;;;;;5132001;27;20047;-83
2022/06/15 04:03:50;;;;;;;8.48;4.03;;;12.20;99.90;;;;;;5132277;27;20410;-84
2022/06/15 04:06:36;;;;;;;9.50;3.60;;;12.20;99.90;;;;;;5131730;27;20047;-83
2022/06/15 04:09:23;;;;;;;9.82;3.65;;;12.10;99.90;;;;;;5132300;27;20043;-84
2022/06/15 04:12:09;;;;;;;6.95;3.40;;;12.10;99.90;;;;;;5117055;27;20084;-83
2022/06/15 04:14:55;;;;;;;9.98;3.65;;;12.20;99.90;;;;;;5132763;27;20055;-81
2022/06/15 04:17:42;;;;;;;7.15;3.28;;;12.20;99.90;;;;;;5112966;27;20083;-83
2022/06/15 04:20:32;;;;;;;7.03;3.13;;;12.30;99.90;;;;;;5113915;27;20051;-82
2022/06/15 04:23:20;;;;;;;11.20;3.47;;;12.30;99.90;;;;;;5113832;27;20047;-82
2022/06/15 04:26:06;;;;;;;6.85;2.65;;;12.40;99.90;;;;;;5114314;27;20130;-83
2022/06/15 04:28:52;;;;;;;11.75;3.65;;;12.40;99.90;;;;;;5130129;27;20055;-83
2022/06/15 04:31:39;;;;;;;9.82;3.35;;;12.50;99.90;;;;;;5131523;27;20058;-83
2022/06/15 04:34:25;;;;;;;9.38;3.55;;;12.50;99.90;;;;;;5130827;27;20047;-82
2022/06/15 04:37:11;;;;;;;10.57;3.20;;;12.60;99.90;;;;;;5098810;27;20054;-82
2022/06/15 04:39:57;;;;;;;10.35;3.13;;;12.60;99.90;;;;;;5097864;27;20180;-81
2022/06/15 04:42:44;;;;;;;7.55;3.00;;;12.70;99.90;;;;;;5117306;27;20441;-82
2022/06/15 04:45:30;;;;;;;9.65;3.60;;;12.80;99.90;;;;;;5114324;27;20061;-82
2022/06/15 04:48:16;;;;;;;5.90;3.35;;;12.90;99.90;;;;;;5131351;27;20529;-83
2022/06/15 04:51:17;;;;;;;9.55;2.83;;;12.90;99.90;;;;;;5131119;27;20047;-83
2022/06/15 04:54:09;;;;;;;5.90;2.78;;;13.00;99.90;;;;;;5113591;27;20612;-83
2022/06/15 04:56:55;;;;;;;6.57;3.10;;;13.10;99.90;;;;;;5131506;27;20495;-83
2022/06/15 04:59:42;;;;;;;9.50;3.00;;;13.20;99.90;;;;;;5113120;27;20050;-81
2022/06/15 05:02:28;;;;;;;8.77;3.60;;;13.40;99.90;;;;;;5113758;27;20046;-83
2022/06/15 05:05:15;;;;;;;9.95;3.40;;;13.50;99.90;;;;;;5112492;27;20059;-83
2022/06/15 05:08:01;;;;;;;6.72;2.63;;;13.60;99.90;;;;;;5130402;27;20525;-81
2022/06/15 05:10:47;;;;;;;6.78;3.38;;;13.70;99.90;;;;;;5112787;27;20133;-83
2022/06/15 05:13:33;;;;;;;9.77;3.17;;;13.90;99.90;;;;;;5130686;27;20047;-83
2022/06/15 05:16:19;;;;;;;6.57;3.17;;;14.00;99.90;;;;;;5130006;27;20050;-82
2022/06/15 05:19:05;;;;;;;9.88;3.72;;;14.10;99.90;;;;;;5112831;27;20051;-83
2022/06/15 05:21:51;;;;;;;9.50;3.03;;;14.30;99.90;;;;;;5112143;27;20063;-84
2022/06/15 05:24:38;;;;;;;9.23;2.78;;;14.40;99.90;;;;;;5130789;27;20605;-83
2022/06/15 05:27:24;;;;;;;6.57;3.33;;;14.50;99.90;;;;;;5129803;27;20051;-83
2022/06/15 05:30:11;;;;;;;7.30;3.08;;;14.70;99.90;;;;;;5112341;27;20051;-83
2022/06/15 05:32:57;;;;;;;9.77;3.53;;;14.90;99.90;;;;;;5131133;27;20516;-83
2022/06/15 05:35:43;;;;;;;12.10;3.72;;;15.00;99.90;;;;;;5130068;27;20058;-83
2022/06/15 05:38:29;;;;;;;8.60;3.67;;;15.10;99.90;;;;;;5130560;27;20047;-83
2022/06/15 05:41:16;;;;;;;7.45;3.30;;;15.30;99.90;;;;;;5131600;28;20407;-85
2022/06/15 05:44:25;;;;;;;8.82;4.30;;;15.40;99.90;;;;;;5111622;28;20051;-80
2022/06/15 05:47:11;;;;;;;12.85;4.93;;;15.60;99.90;;;;;;5112140;28;20551;-83
2022/06/15 05:49:58;;;;;;;10.25;5.22;;;15.60;99.90;;;;;;5131307;28;20062;-83
2022/06/15 05:52:45;;;;;;;14.60;6.07;;;15.80;99.90;;;;;;5112074;28;20047;-83
2022/06/15 05:55:31;;;;;;;10.82;5.20;;;15.80;99.90;;;;;;5113076;28;20094;-83
2022/06/15 05:58:17;;;;;;;17.63;5.65;;;16.00;99.90;;;;;;5112569;28;20406;-84
2022/06/15 06:01:10;;;;;;;16.75;5.47;;;16.10;99.90;;;;;;5112454;28;20077;-83
2022/06/15 06:03:56;;;;;;;13.02;3.50;;;16.20;99.90;;;;;;5130263;28;20035;-84
2022/06/15 06:06:42;;;;;;;6.40;2.97;;;16.30;99.90;;;;;;5129802;28;20043;-82
2022/06/15 06:09:29;;;;;;;5.93;2.47;;;16.50;99.90;;;;;;5110948;28;20141;-82
2022/06/15 06:12:16;;;;;;;5.65;2.38;;;16.70;99.90;;;;;;5132477;28;20047;-80
2022/06/15 06:15:03;;;;;;;5.55;2.00;;;16.80;99.90;;;;;;5129899;28;20051;-81
2022/06/15 06:17:49;;;;;;;6.68;2.10;;;17.00;99.90;;;;;;5114508;28;20055;-82
2022/06/15 06:20:35;;;;;;;6.13;1.92;;;17.20;99.90;;;;;;5111303;28;20046;-82
2022/06/15 06:23:21;;;;;;;9.77;3.40;;;17.30;99.90;;;;;;5130388;28;20047;-83
2022/06/15 06:26:19;;;;;;;17.92;5.53;;;17.40;99.90;;;;;;5112259;28;20102;-82
2022/06/15 06:29:06;;;;;;;10.30;4.85;;;17.30;99.90;;;;;;5129799;28;20134;-82
2022/06/15 06:31:55;;;;;;;12.02;5.07;;;17.30;99.90;;;;;;5097712;28;20521;-83
2022/06/15 06:34:42;;;;;;;6.68;4.60;;;17.30;99.90;;;;;;5130256;28;20483;-83
2022/06/15 06:37:32;;;;;;;10.65;4.93;;;17.50;99.90;;;;;;5115076;28;20046;-81
2022/06/15 06:40:19;;;;;;;9.65;4.57;;;17.50;99.90;;;;;;5097971;28;20131;-81
2022/06/15 06:43:05;;;;;;;8.30;4.07;;;17.50;99.90;;;;;;5111674;28;20047;-85
2022/06/15 06:45:51;;;;;;;13.50;6.13;;;17.50;99.90;;;;;;5133344;27;20043;-82
2022/06/15 06:48:38;;;;;;;12.60;5.63;;;17.50;99.90;;;;;;5116519;27;20083;-83
2022/06/15 06:51:25;;;;;;;19.25;6.05;;;17.50;99.90;;;;;;5118491;27;20047;-81
2022/06/15 06:54:13;;;;;;;13.90;6.20;;;17.50;99.90;;;;;;5116735;27;20402;-84
2022/06/15 06:57:00;;;;;;;10.52;5.20;;;17.60;99.90;;;;;;5133962;27;20047;-82
2022/06/15 06:59:46;;;;;;;15.20;5.13;;;17.80;99.90;;;;;;5115261;27;20050;-82
2022/06/15 07:02:32;;;;;;;11.65;5.22;;;18.10;99.90;;;;;;5114644;27;20049;-82
2022/06/15 07:05:19;;;;;;;11.00;5.25;;;18.30;99.90;;;;;;5111647;28;20055;-84
2022/06/15 07:08:05;;;;;;;9.23;5.03;;;18.50;99.90;;;;;;5114602;27;20108;-80
2022/06/15 07:10:52;;;;;;;10.63;5.20;;;18.70;99.90;;;;;;5116310;27;20413;-81
2022/06/15 07:13:38;;;;;;;12.82;4.90;;;18.70;99.90;;;;;;5133227;27;20043;-82
2022/06/15 07:16:25;;;;;;;11.20;4.93;;;18.90;99.90;;;;;;5125682;27;20055;-81
2022/06/15 07:19:11;;;;;;;11.63;5.22;;;18.90;99.90;;;;;;5112462;28;20511;-79
2022/06/15 07:21:57;;;;;;;12.27;5.07;;;19.00;99.90;;;;;;5111413;28;20050;-83
2022/06/15 07:24:44;;;;;;;9.63;4.97;;;19.20;99.90;;;;;;5111633;28;20141;-81
2022/06/15 07:27:33;;;;;;;9.32;4.30;;;19.40;99.90;;;;;;5111381;28;20562;-82
2022/06/15 07:30:22;;;;;;;9.38;4.07;;;19.50;99.90;;;;;;5112605;28;20143;-80
2022/06/15 07:33:08;;;;;;;8.25;4.53;;;19.80;99.90;;;;;;5111605;28;20043;-82
2022/06/15 07:35:54;;;;;;;8.88;4.13;;;20.00;99.90;;;;;;5112371;28;20044;-80
2022/06/15 07:38:40;;;;;;;7.97;4.00;;;20.10;99.90;;;;;;5098189;28;20078;-81
2022/06/15 07:41:27;;;;;;;12.48;4.35;;;20.20;99.90;;;;;;5110698;28;20043;-82
2022/06/15 07:44:15;;;;;;;8.85;4.32;;;20.20;99.90;;;;;;5112485;28;20048;-81
2022/06/15 07:50:09;;;;;;;8.38;3.25;;;20.60;99.90;;;;;;5112443;28;20052;-82
2022/06/15 07:52:55;;;;;;;6.82;3.45;;;20.50;99.90;;;;;;5113568;28;20090;-82
2022/06/15 07:55:45;;;;;;;11.23;3.67;;;20.60;99.90;;;;;;5110110;28;20111;-81
2022/06/15 07:58:31;;;;;;;11.45;3.97;;;20.70;99.90;;;;;;5111137;28;20094;-83
2022/06/15 08:01:17;;;;;;;5.65;2.85;;;20.70;99.90;;;;;;5112081;28;20048;-84
2022/06/15 08:04:04;;;;;;;7.22;4.03;;;20.70;99.90;;;;;;5110108;28;20512;-82
2022/06/15 08:06:51;;;;;;;9.70;3.60;;;20.80;99.90;;;;;;5111572;28;20054;-82
2022/06/15 08:09:38;;;;;;;12.07;4.32;;;21.10;99.90;;;;;;5111914;28;20134;-81
2022/06/15 08:12:24;;;;;;;9.88;3.50;;;20.90;99.90;;;;;;5110414;28;20124;-81
2022/06/15 08:15:11;;;;;;;9.57;4.07;;;21.10;99.90;;;;;;5112537;28;20048;-82
2022/06/15 08:18:01;;;;;;;10.55;4.38;;;21.20;99.90;;;;;;5130248;27;20054;-81
2022/06/15 08:20:57;;;;;;;9.00;4.35;;;21.30;99.90;;;;;;5132739;27;20045;-82
2022/06/15 08:23:46;;;;;;;10.43;4.57;;;21.40;99.90;;;;;;5113250;27;20160;-82
2022/06/15 08:26:36;;;;;;;9.13;3.90;;;21.20;99.90;;;;;;5114747;27;20050;-81
2022/06/15 08:29:22;;;;;;;8.25;3.42;;;21.10;99.90;;;;;;5131708;27;20096;-81
2022/06/15 08:32:09;;;;;;;7.78;3.50;;;21.50;99.90;;;;;;5132080;27;20047;-82
2022/06/15 08:34:55;;;;;;;8.48;3.53;;;21.70;99.90;;;;;;5131953;27;20491;-82
2022/06/15 08:37:41;;;;;;;6.78;3.05;;;21.80;99.90;;;;;;5113596;27;20054;-81
2022/06/15 08:40:36;;;;;;;8.52;2.90;;;22.10;99.90;;;;;;5100614;27;20039;-82
2022/06/15 08:43:31;;;;;;;12.57;3.55;;;22.40;99.90;;;;;;5130975;27;20164;-82
2022/06/15 08:46:39;;;;;;;8.50;3.42;;;22.30;99.90;;;;;;5131727;27;20460;-83
2022/06/15 08:50:16;;;;;;;13.40;3.83;;;22.50;99.90;;;;;;5117934;27;20050;-81
2022/06/15 08:53:12;;;;;;;8.82;3.17;;;22.30;99.90;;;;;;5104393;27;20053;-83
2022/06/15 08:56:17;;;;;;;9.50;4.45;;;22.70;99.90;;;;;;5116398;27;20120;-84
2022/06/15 08:59:29;;;;;;;10.50;3.50;;;22.60;99.90;;;;;;5131560;27;20047;-81
2022/06/15 09:02:34;;;;;;;9.88;3.78;;;22.60;99.10;;;;;;5131201;27;20043;-82
2022/06/15 09:05:39;;;;;;;5.75;2.38;;;22.80;98.60;;;;;;5113479;27;20047;-84
2022/06/15 09:09:01;;;;;;;8.00;2.70;;;23.00;98.00;;;;;;5130322;27;20047;-82
2022/06/15 09:15:30;;;;;;;8.55;3.33;;;23.10;97.20;;;;;;5131921;27;20054;-81
2022/06/15 09:18:21;;;;;;;5.88;3.00;;;23.20;97.50;;;;;;5116018;27;20414;-83
2022/06/15 09:21:16;;;;;;;8.10;2.60;;;23.20;97.30;;;;;;5131364;27;20760;-82
2022/06/15 09:24:02;;;;;;;6.82;3.20;;;23.50;97.20;;;;;;5113323;27;20544;-83
2022/06/15 09:26:55;;;;;;;9.40;2.70;;;23.70;96.50;;;;;;5099357;27;20410;-81
2022/06/15 09:29:47;;;;;;;6.70;2.80;;;23.90;95.40;;;;;;5112767;27;20141;-80
2022/06/15 09:32:38;;;;;;;5.97;2.60;;;24.00;94.50;;;;;;5114223;28;20047;-81
2022/06/15 09:35:46;;;;;;;5.20;2.20;;;24.00;94.20;;;;;;5131336;27;20063;-82
2022/06/15 09:38:33;;;;;;;7.85;2.15;;;23.90;93.50;;;;;;5112632;27;20051;-81
2022/06/15 09:41:36;;;;;;;5.82;2.33;;;23.90;93.20;;;;;;5131871;27;20380;-83
2022/06/15 09:44:34;;;;;;;5.90;1.90;;;24.20;90.90;;;;;;5112918;28;20116;-80
2022/06/15 09:47:51;;;;;;;8.27;2.95;;;24.30;90.50;;;;;;5130708;28;20043;-79
2022/06/15 09:51:01;;;;;;;9.25;2.95;;;24.70;93.00;;;;;;5131221;28;20043;-80
2022/06/15 09:53:56;;;;;;;4.47;1.73;;;24.90;92.50;;;;;;5112543;28;20100;-79
2022/06/15 09:56:43;;;;;;;6.72;2.08;;;25.00;93.50;;;;;;5132102;28;20138;-82
2022/06/15 09:59:33;;;;;;;6.50;2.30;;;25.00;91.90;;;;;;5130462;28;20057;-79
2022/06/15 10:02:28;;;;;;;9.73;2.00;;;25.20;90.70;;;;;;5098333;28;20598;-81
2022/06/15 10:05:34;;;;;;;;;;;25.30;87.50;;;;;;5131599;28;20051;-79
2022/06/15 10:08:21;;;;;;;5.47;2.03;;;25.50;90.30;;;;;;5111548;28;19923;-82
2022/06/15 10:11:24;;;;;;;5.38;1.95;;;25.40;87.50;;;;;;5112426;28;20054;-82
2022/06/15 10:14:24;;;;;;;5.38;1.73;;;25.40;81.70;;;;;;5111819;28;20092;-82
2022/06/15 10:17:24;;;;;;;5.80;2.17;;;25.40;85.80;;;;;;5130062;28;20047;-80
2022/06/15 10:20:41;;;;;;;5.75;1.73;;;25.30;82.50;;;;;;5133636;27;20107;-80
2022/06/15 10:23:52;;;;;;;7.50;2.00;;;25.40;90.50;;;;;;5112732;27;20051;-82
2022/06/15 10:26:42;;;;;;;8.05;2.25;;;25.40;90.40;;;;;;5136784;27;20043;-81
2022/06/15 10:29:31;;;;;;;7.22;2.70;;;25.60;91.60;;;;;;5118163;27;20410;-81
2022/06/15 10:32:20;;;;;;;7.85;2.45;;;26.00;91.80;;;;;;5135354;27;20524;-81
2022/06/15 10:35:18;;;;;;;5.30;2.10;;;26.10;91.50;;;;;;5119267;27;20089;-80
2022/06/15 10:38:11;;;;;;;6.53;2.60;;;26.10;91.20;;;;;;5115243;27;20055;-81
2022/06/15 10:41:45;;;;;;;6.93;2.35;;;26.00;88.60;;;;;;5120134;27;20398;-82
2022/06/15 10:44:23;;;;;;;4.75;1.90;;;26.10;90.40;;;;;;5134420;27;20408;-80
2022/06/15 10:47:29;;;;;;;8.50;1.80;;;26.20;87.90;;;;;;5116138;27;20458;-81
2022/06/15 10:50:26;;;;;;;5.93;2.60;;;26.40;90.40;;;;;;5133570;27;20428;-81
2022/06/15 10:53:24;;;;;;;7.65;2.85;;;26.20;86.70;;;;;;5134599;27;20320;-82
2022/06/15 11:03:16;;;;;;;6.38;2.97;;;26.40;91.00;;;;;;5115436;27;20043;-81
2022/06/15 11:06:02;;;;;;;9.52;2.80;;;26.60;91.00;;;;;;5133633;27;20107;-82
2022/06/15 11:08:48;;;;;;;7.65;2.50;;;26.70;91.10;;;;;;5134009;27;20051;-84
2022/06/15 11:11:35;;;;;;;6.63;2.78;;;26.80;91.20;;;;;;5118823;27;20561;-81
2022/06/15 11:14:55;;;;;;;9.85;2.85;;;27.00;90.80;;;;;;5133890;27;20116;-80
2022/06/15 11:18:03;;;;;;;8.38;2.92;;;27.00;88.40;;;;;;5132603;27;20515;-80
2022/06/15 11:20:56;;;;;;;10.02;2.75;;;26.90;87.40;;;;;;5134974;27;20092;-81
2022/06/15 11:24:14;;;;;;;6.60;2.65;;;26.80;88.00;;;;;;5114865;27;20142;-81
2022/06/15 11:27:16;;;;;;;9.93;2.60;;;26.90;88.50;;;;;;5133105;27;20051;-79
2022/06/15 11:30:06;;;;;;;10.40;3.60;;;26.80;88.20;;;;;;5133516;27;20055;-83
2022/06/15 11:33:01;;;;;;;5.97;2.20;;;27.00;87.00;;;;;;5114264;27;20047;-82
2022/06/15 11:36:00;;;;;;;7.47;2.83;;;26.90;87.70;;;;;;5115178;27;20042;-80
2022/06/15 11:39:10;;;;;;;5.40;1.98;;;26.90;81.80;;;;;;5133289;27;20047;-80
2022/06/15 11:41:57;;;;;;;5.50;2.10;;;27.00;86.40;;;;;;5118199;27;20126;-81
2022/06/15 11:44:44;;;;;;;8.18;2.35;;;26.90;83.10;;;;;;5132553;27;20095;-80
2022/06/15 11:47:52;;;;;;;8.52;2.00;;;26.90;83.30;;;;;;5132420;27;20050;-82
2022/06/15 11:50:51;;;;;;;5.78;1.98;;;27.20;85.20;;;;;;5114502;27;20043;-80
2022/06/15 11:54:00;;;;;;;4.97;1.52;;;27.50;83.10;;;;;;5133292;27;20047;-81
2022/06/15 11:56:59;;;;;;;4.82;1.88;;;27.40;74.30;;;;;;5114155;27;20055;-80
2022/06/15 12:00:00;;;;;;;7.63;1.90;;;27.50;70.90;;;;;;5114702;27;20091;-82
2022/06/15 12:03:23;;;;;;;7.32;1.95;;;27.60;66.50;;;;;;5100722;27;20055;-81
2022/06/15 12:06:12;;;;;;;7.05;2.08;;;27.60;62.70;;;;;;5132622;27;20043;-80
2022/06/15 12:09:08;;;;;;;4.45;1.40;;;27.70;65.40;;;;;;5133102;27;20517;-81
2022/06/15 12:15:32;;;;;;;3.55;1.55;;;27.80;54.90;;;;;;5113717;27;20054;-79
2022/06/15 12:18:40;;;;;;;3.30;1.38;;;28.40;56.90;;;;;;5113986;27;20042;-79
2022/06/15 12:21:40;;;;;;;5.13;1.58;;;28.70;53.20;;;;;;5114082;27;20104;-78
2022/06/15 12:25:04;;;;;;;7.50;1.40;;;28.70;55.80;;;;;;5132411;27;20075;-79
2022/06/15 12:27:59;;;;;;;4.60;1.48;;;28.90;50.40;;;;;;5132479;27;20058;-80
2022/06/15 12:31:15;;;;;;;4.95;1.58;;;29.00;49.90;;;;;;5131561;27;20567;-81
2022/06/15 12:34:22;;;;;;;3.30;1.40;;;29.30;49.10;;;;;;5113956;27;20043;-81
2022/06/15 12:37:22;;;;;;;5.32;1.25;;;29.20;48.30;;;;;;5113525;27;20046;-81
2022/06/15 12:40:21;;;;;;;3.67;1.35;;;29.20;49.80;;;;;;5114663;27;20043;-81
2022/06/15 12:43:36;;;;;;;9.10;1.40;;;29.70;49.60;;;;;;5100742;27;20139;-81
2022/06/15 12:46:24;;;;;;;4.07;1.70;;;29.80;46.10;;;;;;5117058;27;20111;-80
2022/06/15 12:49:17;;;;;;;3.88;1.25;;;29.80;48.70;;;;;;5131485;27;20045;-79
2022/06/15 12:52:21;;;;;;;4.20;1.55;;;29.70;48.60;;;;;;5132508;27;20043;-79
2022/06/15 12:55:43;;;;;;;3.38;1.27;;;29.70;47.10;;;;;;5132651;27;20053;-80
2022/06/15 12:59:00;;;;;;;4.00;1.42;;;29.60;47.20;;;;;;5132183;27;20484;-82
2022/06/15 13:01:58;;;;;;;4.00;1.80;;;29.90;46.90;;;;;;5113518;27;20043;-79
2022/06/15 13:05:02;;;;;;;4.95;1.50;;;30.30;48.00;;;;;;5113790;27;20055;-79
2022/06/15 13:12:39;;;;;;;4.55;1.58;;;30.00;43.60;;;;;;5132222;27;20034;-79
2022/06/15 13:15:34;;;;;;;3.22;1.02;;;30.30;44.30;;;;;;5113492;27;20452;-79
2022/06/15 13:18:46;;;;;;;3.70;1.30;;;30.50;44.20;;;;;;5131105;27;20143;-80
2022/06/15 13:21:52;;;;;;;4.88;1.73;;;30.40;42.80;;;;;;5130876;27;20380;-81
2022/06/15 13:24:55;;;;;;;4.93;1.67;;;30.30;42.10;;;;;;5132076;27;20073;-80
2022/06/15 13:27:46;;;;;;;4.05;1.48;;;30.50;39.20;;;;;;5113334;27;20043;-78
2022/06/15 13:30:57;;;;;;;2.95;1.20;;;30.30;40.90;;;;;;5130727;27;20047;-80
2022/06/15 13:33:46;;;;;;;4.45;1.63;;;30.40;40.40;;;;;;5112131;28;20043;-79
2022/06/15 13:36:33;;;;;;;4.13;1.20;;;30.20;40.00;;;;;;5112882;28;20137;-80
2022/06/15 13:39:42;;;;;;;4.20;1.45;;;30.30;39.90;;;;;;5113355;27;20047;-80
2022/06/15 13:42:55;;;;;;;3.28;1.20;;;30.20;39.70;;;;;;5115009;27;20043;-80
2022/06/15 13:45:41;;;;;;;3.55;1.30;;;30.60;40.60;;;;;;5113180;28;20051;-80
2022/06/15 13:48:36;;;;;;;4.03;1.30;;;31.00;40.40;;;;;;5099790;28;20043;-80
2022/06/15 13:51:34;;;;;;;2.45;1.20;;;31.30;38.90;;;;;;5130920;28;20483;-80
2022/06/15 13:54:55;;;;;;;4.53;1.50;;;31.80;38.50;;;;;;5099686;27;20805;-80
2022/06/15 13:57:56;;;;;;;3.63;1.40;;;31.90;36.70;;;;;;5134781;27;20059;-80
2022/06/15 14:01:09;;;;;;;3.63;1.00;;;31.90;37.10;;;;;;5134747;27;20043;-81
2022/06/15 14:04:16;;;;;;;4.63;1.20;;;31.90;38.40;;;;;;5135971;27;20054;-80
2022/06/15 14:07:53;;;;;;;5.25;1.58;;;32.00;37.20;;;;;;5134847;27;20578;-80
2022/06/15 14:10:48;;;;;;;4.13;1.27;;;32.70;37.20;;;;;;5103059;27;20039;-80
2022/06/15 14:13:52;;;;;;;3.65;1.23;;;32.40;36.20;;;;;;5119632;27;20051;-79
2022/06/15 14:17:03;;;;;;;3.67;1.48;;;32.30;37.60;;;;;;5134503;27;20062;-80
2022/06/15 14:20:10;;;;;;;2.72;1.08;;;32.10;36.50;;;;;;5134693;27;20055;-80
2022/06/15 14:23:00;;;;;;;4.40;1.33;;;32.40;36.10;;;;;;5134623;27;20047;-81
2022/06/15 14:25:49;;;;;;;2.78;1.50;;;32.00;36.00;;;;;;5116640;27;20108;-80
2022/06/15 14:28:36;;;;;;;3.08;1.30;;;32.10;36.20;;;;;;5115949;27;20036;-79
2022/06/15 14:31:26;;;;;;;3.92;1.10;;;32.20;35.90;;;;;;5134756;27;20081;-81
2022/06/15 14:34:18;;;;;;;4.82;1.33;;;32.20;35.30;;;;;;5134006;27;20567;-80
2022/06/15 14:37:10;;;;;;;3.42;1.23;;;32.30;35.10;;;;;;5134301;27;20103;-81
2022/06/15 14:39:57;;;;;;;3.65;1.13;;;32.40;35.60;;;;;;5115821;27;20061;-81
2022/06/15 14:42:57;;;;;;;2.88;1.25;;;32.30;35.80;;;;;;5133596;27;20494;-80
2022/06/15 14:45:46;;;;;;;5.50;1.30;;;32.30;36.40;;;;;;5134340;27;20047;-81
2022/06/15 14:48:37;;;;;;;4.70;1.40;;;32.20;35.90;;;;;;5134109;27;20054;-81
2022/06/15 14:51:26;;;;;;;4.25;1.25;;;32.30;35.70;;;;;;5115169;27;20482;-81
2022/06/15 14:54:16;;;;;;;3.22;1.17;;;32.10;35.60;;;;;;5133394;27;20454;-80
2022/06/15 14:57:03;;;;;;;4.45;1.55;;;31.80;36.80;;;;;;5133306;27;20099;-80
2022/06/15 14:59:53;;;;;;;4.60;1.20;;;31.60;37.40;;;;;;5115277;27;20461;-81
2022/06/15 15:02:41;;;;;;;2.97;1.20;;;31.40;37.30;;;;;;5133498;27;20087;-80
2022/06/15 15:05:34;;;;;;;4.35;1.42;;;31.30;38.80;;;;;;5134653;27;20062;-80
2022/06/15 15:08:27;;;;;;;4.83;1.57;;;31.00;37.70;;;;;;5134348;27;20062;-81
2022/06/15 15:11:32;;;;;;;3.03;1.02;;;31.20;38.70;;;;;;5134285;27;20290;-80
2022/06/15 15:14:26;;;;;;;3.90;1.23;;;31.30;37.80;;;;;;5133722;27;20058;-81
2022/06/15 15:17:13;;;;;;;;;;;30.90;37.90;;;;;;5133527;27;20066;-80
2022/06/15 15:20:19;;;;;;;3.80;1.25;;;30.60;37.30;;;;;;5116400;27;19923;-80
2022/06/15 15:23:06;;;;;;;3.97;1.42;;;30.30;37.80;;;;;;5114217;27;20087;-79
2022/06/15 15:25:55;;;;;;;4.70;1.33;;;30.60;38.60;;;;;;5133062;27;20051;-81